createdAt,value
2017-11-01T00:00:10.242Z,9.19
2017-11-01T00:01:10.228Z,8.34
2017-11-01T00:02:10.211Z,7.57
2017-11-01T00:03:10.196Z,6.82
2017-11-01T00:04:10.185Z,6.16
2017-11-01T00:05:10.173Z,6.25
2017-11-01T00:06:10.153Z,5.87
2017-11-01T00:07:09.796Z,5.68
2017-11-01T00:08:10.129Z,5.4
2017-11-01T00:09:09.802Z,5.11
2017-11-01T00:10:09.753Z,5.3
2017-11-01T00:11:09.740Z,4.55
2017-11-01T00:12:10.093Z,3.88
2017-11-01T00:13:10.055Z,3.59
2017-11-01T00:14:09.693Z,3.41
2017-11-01T00:15:09.719Z,3.13
2017-11-01T00:16:09.662Z,2.18
2017-11-01T00:17:09.991Z,1.7
2017-11-01T00:18:09.970Z,1.61
2017-11-01T00:19:09.617Z,1.89
2017-11-01T00:20:09.942Z,2.65
2017-11-01T00:21:09.586Z,3.97
2017-11-01T00:22:09.911Z,5.87
2017-11-01T00:23:09.560Z,6.82
2017-11-01T00:24:09.546Z,8.05
2017-11-01T00:25:09.532Z,9.66
2017-11-01T00:26:09.513Z,10.52
2017-11-01T00:27:09.498Z,11.27
2017-11-01T00:28:09.480Z,11.27
2017-11-01T00:29:09.465Z,11.27
2017-11-01T00:30:09.452Z,11.65
2017-11-01T00:31:09.453Z,11.74
2017-11-01T00:32:09.759Z,11.74
2017-11-01T00:33:09.405Z,11.84
2017-11-01T00:34:09.405Z,11.65
2017-11-01T00:35:09.376Z,11.74
2017-11-01T00:36:09.729Z,12.41
2017-11-01T00:37:09.687Z,12.41
2017-11-01T00:38:09.937Z,13.45
2017-11-01T00:39:09.750Z,13.64
2017-11-01T00:40:09.299Z,13.64
2017-11-01T00:41:09.304Z,14.02
2017-11-01T00:42:09.612Z,14.4
2017-11-01T00:43:09.255Z,13.92
2017-11-01T00:44:09.345Z,14.97
2017-11-01T00:45:09.292Z,15.63
2017-11-01T00:46:09.382Z,15.06
2017-11-01T00:47:09.262Z,15.44
2017-11-01T00:48:09.687Z,15.72
2017-11-01T00:49:09.282Z,15.06
2017-11-01T00:50:09.258Z,16.01
2017-11-01T00:51:09.199Z,15.82
2017-11-01T00:52:09.280Z,16.01
2017-11-01T00:53:09.168Z,16.39
2017-11-01T00:54:09.191Z,18.48
2017-11-01T00:55:09.138Z,18.38
2017-11-01T00:56:09.181Z,18.48
2017-11-01T00:57:09.516Z,18.96
2017-11-01T00:58:09.173Z,19.62
2017-11-01T00:59:09.449Z,20.47
2017-11-01T01:00:09.119Z,20.95
2017-11-01T01:01:09.392Z,20.75
2017-11-01T01:02:09.143Z,22.08
2017-11-01T01:03:09.014Z,23.32
2017-11-01T01:04:09.088Z,23.13
2017-11-01T01:05:09.031Z,23.13
2017-11-01T01:06:09.037Z,21.99
2017-11-01T01:07:08.965Z,21.51
2017-11-01T01:08:09.415Z,22.37
2017-11-01T01:09:09.214Z,22.56
2017-11-01T01:10:09.015Z,22.56
2017-11-01T01:11:09.444Z,22.94
2017-11-01T01:12:08.993Z,22.94
2017-11-01T01:13:08.930Z,22.75
2017-11-01T01:14:09.362Z,22.46
2017-11-01T01:15:08.939Z,23.5
2017-11-01T01:16:09.347Z,24.36
2017-11-01T01:17:09.276Z,24.74
2017-11-01T01:18:08.841Z,25.12
2017-11-01T01:19:09.241Z,25.21
2017-11-01T01:20:08.861Z,26.35
2017-11-01T01:21:08.786Z,27.01
2017-11-01T01:22:08.865Z,31.28
2017-11-01T01:23:08.796Z,31.56
2017-11-01T01:24:08.801Z,30.8
2017-11-01T01:25:08.763Z,30.52
2017-11-01T01:26:09.195Z,31.47
2017-11-01T01:27:09.076Z,31.37
2017-11-01T01:28:08.767Z,32.04
2017-11-01T01:29:08.688Z,31.95
2017-11-01T01:30:09.097Z,32.32
2017-11-01T01:31:08.650Z,33.17
2017-11-01T01:32:09.021Z,33.08
2017-11-01T01:33:08.562Z,33.17
2017-11-01T01:34:08.666Z,32.98
2017-11-01T01:35:08.530Z,32.32
2017-11-01T01:36:09.024Z,32.04
2017-11-01T01:37:08.530Z,32.42
2017-11-01T01:38:08.618Z,32.51
2017-11-01T01:39:08.474Z,32.04
2017-11-01T01:40:09.083Z,31.56
2017-11-01T01:41:08.451Z,30.52
2017-11-01T01:42:08.555Z,31.75
2017-11-01T01:43:08.427Z,31.28
2017-11-01T01:44:08.534Z,30.71
2017-11-01T01:45:08.755Z,31.18
2017-11-01T01:46:08.514Z,32.23
2017-11-01T01:47:08.334Z,32.42
2017-11-01T01:48:08.512Z,31.75
2017-11-01T01:49:08.335Z,32.6
2017-11-01T01:50:08.435Z,31.75
2017-11-01T01:51:08.296Z,31.28
2017-11-01T01:52:08.910Z,31.85
2017-11-01T01:53:08.668Z,32.98
2017-11-01T01:54:08.785Z,33.27
2017-11-01T01:55:08.245Z,32.32
2017-11-01T01:56:08.346Z,32.51
2017-11-01T01:57:08.563Z,33.17
2017-11-01T01:58:08.385Z,33.37
2017-11-01T01:59:08.554Z,33.27
2017-11-01T02:00:08.276Z,32.98
2017-11-01T02:01:08.148Z,33.37
2017-11-01T02:02:08.681Z,34.31
2017-11-01T02:03:08.094Z,34.69
2017-11-01T02:04:08.236Z,35.45
2017-11-01T02:05:08.081Z,34.98
2017-11-01T02:06:08.540Z,34.5
2017-11-01T02:07:08.411Z,33.46
2017-11-01T02:08:08.115Z,33.75
2017-11-01T02:09:08.045Z,34.03
2017-11-01T02:10:08.176Z,34.03
2017-11-01T02:11:08.025Z,35.64
2017-11-01T02:12:08.481Z,35.64
2017-11-01T02:13:08.314Z,35.07
2017-11-01T02:14:08.078Z,34.69
2017-11-01T02:15:07.937Z,35.07
2017-11-01T02:16:08.549Z,34.41
2017-11-01T02:17:07.962Z,32.6
2017-11-01T02:18:07.957Z,31.56
2017-11-01T02:19:08.276Z,32.32
2017-11-01T02:20:08.035Z,32.89
2017-11-01T02:21:08.488Z,32.42
2017-11-01T02:22:08.402Z,33.56
2017-11-01T02:23:07.802Z,33.46
2017-11-01T02:24:07.770Z,33.84
2017-11-01T02:25:08.089Z,34.03
2017-11-01T02:26:07.735Z,34.59
2017-11-01T02:27:08.067Z,35.45
2017-11-01T02:28:07.707Z,36.68
2017-11-01T02:29:07.692Z,36.21
2017-11-01T02:30:08.021Z,36.78
2017-11-01T02:31:07.664Z,36.3
2017-11-01T02:32:07.649Z,35.93
2017-11-01T02:33:07.985Z,36.3
2017-11-01T02:34:07.624Z,35.83
2017-11-01T02:35:07.950Z,36.11
2017-11-01T02:36:07.591Z,36.02
2017-11-01T02:37:07.577Z,35.45
2017-11-01T02:38:07.563Z,35.18
2017-11-01T02:39:07.547Z,36.11
2017-11-01T02:40:07.534Z,36.02
2017-11-01T02:41:07.519Z,36.3
2017-11-01T02:42:07.507Z,37.73
2017-11-01T02:43:07.829Z,37.84
2017-11-01T02:44:07.481Z,37.54
2017-11-01T02:45:07.800Z,37.93
2017-11-01T02:46:07.451Z,37.54
2017-11-01T02:47:07.772Z,37.16
2017-11-01T02:48:07.418Z,37.35
2017-11-01T02:49:07.402Z,36.97
2017-11-01T02:50:07.737Z,38.1
2017-11-01T02:51:07.384Z,38.67
2017-11-01T02:52:07.706Z,38.86
2017-11-01T02:53:07.345Z,39.34
2017-11-01T02:54:07.672Z,38.96
2017-11-01T02:55:07.316Z,38.48
2017-11-01T02:56:07.302Z,37.63
2017-11-01T02:57:07.631Z,38.01
2017-11-01T02:58:07.272Z,39.81
2017-11-01T02:59:07.600Z,39.15
2017-11-01T03:00:07.244Z,39.05
2017-11-01T03:01:07.573Z,39.53
2017-11-01T03:02:07.213Z,40.28
2017-11-01T03:03:07.200Z,39.73
2017-11-01T03:04:07.194Z,38.86
2017-11-01T03:05:07.173Z,37.92
2017-11-01T03:06:07.500Z,38.2
2017-11-01T03:07:07.142Z,37.44
2017-11-01T03:08:07.129Z,38.31
2017-11-01T03:09:07.121Z,37.54
2017-11-01T03:10:07.124Z,37.55
2017-11-01T03:11:07.086Z,37.08
2017-11-01T03:12:07.436Z,36.78
2017-11-01T03:13:07.395Z,36.22
2017-11-01T03:14:07.049Z,36.3
2017-11-01T03:15:07.409Z,35.94
2017-11-01T03:16:07.013Z,35.36
2017-11-01T03:17:07.034Z,35.36
2017-11-01T03:18:06.984Z,36.02
2017-11-01T03:19:07.314Z,35.36
2017-11-01T03:20:06.955Z,35.09
2017-11-01T03:21:07.279Z,33.94
2017-11-01T03:22:07.291Z,35.09
2017-11-01T03:23:06.914Z,34.69
2017-11-01T03:24:07.242Z,33.84
2017-11-01T03:25:06.884Z,33.08
2017-11-01T03:26:06.871Z,31.95
2017-11-01T03:27:06.874Z,31.77
2017-11-01T03:28:07.187Z,30.33
2017-11-01T03:29:06.829Z,30.82
2017-11-01T03:30:07.157Z,30.62
2017-11-01T03:31:06.815Z,27.87
2017-11-01T03:32:07.120Z,29
2017-11-01T03:33:06.769Z,28.44
2017-11-01T03:34:06.753Z,27.87
2017-11-01T03:35:06.737Z,27.77
2017-11-01T03:36:06.726Z,27.87
2017-11-01T03:37:06.711Z,26.26
2017-11-01T03:38:06.695Z,26.07
2017-11-01T03:39:07.019Z,25.02
2017-11-01T03:40:06.667Z,25.4
2017-11-01T03:41:07.000Z,23.69
2017-11-01T03:42:06.638Z,22.94
2017-11-01T03:43:06.623Z,21.04
2017-11-01T03:44:06.610Z,20.47
2017-11-01T03:45:06.596Z,20
2017-11-01T03:46:06.928Z,19.9
2017-11-01T03:47:06.565Z,20.38
2017-11-01T03:48:06.548Z,20.95
2017-11-01T03:49:06.876Z,19.62
2017-11-01T03:50:06.522Z,18.86
2017-11-01T03:51:06.509Z,18.48
2017-11-01T03:52:06.837Z,17.72
2017-11-01T03:53:06.817Z,18.2
2017-11-01T03:54:06.464Z,18.86
2017-11-01T03:55:06.790Z,18.39
2017-11-01T03:56:06.438Z,17.63
2017-11-01T03:57:06.419Z,17.16
2017-11-01T03:58:06.407Z,16.3
2017-11-01T03:59:06.389Z,15.55
2017-11-01T04:00:06.723Z,15.55
2017-11-01T04:01:06.363Z,15.17
2017-11-01T04:02:06.346Z,14.59
2017-11-01T04:03:06.674Z,13.75
2017-11-01T04:04:06.320Z,14.12
2017-11-01T04:05:06.304Z,13.75
2017-11-01T04:06:06.633Z,13.75
2017-11-01T04:07:06.627Z,15.07
2017-11-01T04:08:06.262Z,15.83
2017-11-01T04:09:06.584Z,15.83
2017-11-01T04:10:06.232Z,15.73
2017-11-01T04:11:06.220Z,15.92
2017-11-01T04:12:06.552Z,17.82
2017-11-01T04:13:06.187Z,17.25
2017-11-01T04:14:06.184Z,17.72
2017-11-01T04:15:06.502Z,17.91
2017-11-01T04:16:06.143Z,17.63
2017-11-01T04:17:06.131Z,17.35
2017-11-01T04:18:06.457Z,17.63
2017-11-01T04:19:06.101Z,17.91
2017-11-01T04:20:06.426Z,15.73
2017-11-01T04:21:06.070Z,14.5
2017-11-01T04:22:06.056Z,13.93
2017-11-01T04:23:06.381Z,15.36
2017-11-01T04:24:06.030Z,16.39
2017-11-01T04:25:06.353Z,15.83
2017-11-01T04:26:05.997Z,16.68
2017-11-01T04:27:05.982Z,16.49
2017-11-01T04:28:05.969Z,16.02
2017-11-01T04:29:05.959Z,15.73
2017-11-01T04:30:05.939Z,14.97
2017-11-01T04:31:06.278Z,14.97
2017-11-01T04:32:05.910Z,14.4
2017-11-01T04:33:05.895Z,13.36
2017-11-01T04:34:05.903Z,12.13
2017-11-01T04:35:06.215Z,11.09
2017-11-01T04:36:05.855Z,9.95
2017-11-01T04:37:05.837Z,10.14
2017-11-01T04:38:06.161Z,10.61
2017-11-01T04:39:05.811Z,11.75
2017-11-01T04:40:05.798Z,11.66
2017-11-01T04:41:06.122Z,12.98
2017-11-01T04:42:06.115Z,13.36
2017-11-01T04:43:05.752Z,13.27
2017-11-01T04:44:05.750Z,12.7
2017-11-01T04:45:05.723Z,11.85
2017-11-01T04:46:05.730Z,11.37
2017-11-01T04:47:05.693Z,10.24
2017-11-01T04:48:05.676Z,9.19
2017-11-01T04:49:06.004Z,8.62
2017-11-01T04:50:06.004Z,8.72
2017-11-01T04:51:05.634Z,8.91
2017-11-01T04:52:05.619Z,9
2017-11-01T04:53:05.604Z,9.1
2017-11-01T04:54:05.591Z,8.34
2017-11-01T04:55:05.581Z,7.1
2017-11-01T04:56:05.559Z,7.68
2017-11-01T04:57:05.547Z,6.92
2017-11-01T04:58:05.537Z,5.87
2017-11-01T04:59:05.855Z,5.02
2017-11-01T05:00:05.849Z,4.55
2017-11-01T05:01:05.488Z,4.36
2017-11-01T05:02:05.474Z,3.5
2017-11-01T05:03:05.820Z,2.84
2017-11-01T05:04:05.786Z,3.03
2017-11-01T05:05:05.793Z,2.18
2017-11-01T05:06:05.777Z,1.89
2017-11-01T05:07:05.399Z,2.08
2017-11-01T05:08:05.383Z,0.66
2017-11-01T05:09:05.711Z,0.28
2017-11-01T05:10:05.354Z,0
2017-11-01T05:11:05.681Z,0
2017-11-01T05:12:05.326Z,0
2017-11-01T05:13:05.308Z,0
2017-11-01T05:14:05.295Z,0
2017-11-01T05:15:05.280Z,0
2017-11-01T05:16:05.265Z,0
2017-11-01T05:17:05.252Z,0
2017-11-01T05:18:05.592Z,0
2017-11-01T05:19:05.571Z,0
2017-11-01T05:20:05.207Z,0
2017-11-01T05:21:05.200Z,0
2017-11-01T05:22:05.176Z,0
2017-11-01T05:23:05.167Z,0
2017-11-01T05:24:05.146Z,0
2017-11-01T05:25:05.134Z,0
2017-11-01T05:26:05.128Z,0
2017-11-01T05:27:05.448Z,0
2017-11-01T05:28:05.097Z,0
2017-11-01T05:29:05.438Z,0
2017-11-01T05:30:05.081Z,0
2017-11-01T05:31:05.382Z,0
2017-11-01T05:32:05.373Z,0
2017-11-01T05:33:05.013Z,0
2017-11-01T05:34:05.000Z,0
2017-11-01T05:35:04.986Z,0
2017-11-01T05:36:04.970Z,0
2017-11-01T05:37:04.957Z,0
2017-11-01T05:38:04.952Z,0
2017-11-01T05:39:04.925Z,0
2017-11-01T05:40:04.910Z,0
2017-11-01T05:41:04.899Z,0
2017-11-01T05:42:04.891Z,0
2017-11-01T05:43:04.917Z,0
2017-11-01T05:44:05.192Z,0
2017-11-01T05:45:04.836Z,0
2017-11-01T05:46:04.819Z,0
2017-11-01T05:47:04.831Z,0
2017-11-01T05:48:04.810Z,0
2017-11-01T05:49:04.777Z,0
2017-11-01T05:50:05.102Z,0
2017-11-01T05:51:05.087Z,0
2017-11-01T05:52:04.731Z,0
2017-11-01T05:53:04.718Z,0
2017-11-01T05:54:04.714Z,0
2017-11-01T05:55:04.688Z,0
2017-11-01T05:56:04.673Z,0
2017-11-01T05:57:04.657Z,0
2017-11-01T05:58:04.663Z,0
2017-11-01T05:59:04.629Z,0
2017-11-01T06:00:04.953Z,0
2017-11-01T06:01:04.598Z,0
2017-11-01T06:02:04.586Z,0
2017-11-01T06:03:04.907Z,0
2017-11-01T06:04:04.556Z,0
2017-11-01T06:05:04.545Z,0
2017-11-01T06:06:04.523Z,0
2017-11-01T06:07:04.513Z,0
2017-11-01T06:08:04.496Z,0
2017-11-01T06:09:04.479Z,0
2017-11-01T06:10:04.467Z,0
2017-11-01T06:11:04.451Z,0
2017-11-01T06:12:04.436Z,0
2017-11-01T06:13:04.421Z,0
2017-11-01T06:14:04.410Z,0
2017-11-01T06:15:04.919Z,0
2017-11-01T06:16:04.377Z,0
2017-11-01T06:17:04.382Z,0
2017-11-01T06:18:04.348Z,0
2017-11-01T06:19:04.330Z,0
2017-11-01T06:20:04.321Z,0
2017-11-01T06:21:04.304Z,0
2017-11-01T06:22:04.634Z,0
2017-11-01T06:23:04.273Z,0
2017-11-01T06:24:04.259Z,0
2017-11-01T06:25:04.589Z,0
2017-11-01T06:26:04.232Z,0
2017-11-01T06:27:04.214Z,0
2017-11-01T06:28:04.197Z,0
2017-11-01T06:29:04.185Z,0
2017-11-01T06:30:04.168Z,0
2017-11-01T06:31:04.153Z,0
2017-11-01T06:32:04.142Z,0
2017-11-01T06:33:04.125Z,0
2017-11-01T06:34:04.112Z,0
2017-11-01T06:35:04.096Z,0
2017-11-01T06:36:04.078Z,0
2017-11-01T06:37:04.064Z,0
2017-11-01T06:38:04.051Z,0
2017-11-01T06:39:04.036Z,0
2017-11-01T06:40:04.020Z,0
2017-11-01T06:41:04.009Z,0
2017-11-01T06:42:03.991Z,0
2017-11-01T06:43:03.977Z,0
2017-11-01T06:44:03.958Z,0
2017-11-01T06:45:03.944Z,0
2017-11-01T06:46:03.929Z,0
2017-11-01T06:47:03.938Z,0
2017-11-01T06:48:03.900Z,0
2017-11-01T06:49:03.887Z,0
2017-11-01T06:50:03.871Z,0
2017-11-01T06:51:03.857Z,0
2017-11-01T06:52:03.840Z,0
2017-11-01T06:53:03.825Z,0
2017-11-01T06:54:03.812Z,0
2017-11-01T06:55:04.143Z,0
2017-11-01T06:56:03.798Z,0
2017-11-01T06:57:04.111Z,0
2017-11-01T06:58:04.098Z,0
2017-11-01T06:59:04.076Z,0
2017-11-01T07:00:04.062Z,0
2017-11-01T07:01:04.044Z,0
2017-11-01T07:02:04.053Z,0
2017-11-01T07:03:04.031Z,0
2017-11-01T07:04:03.664Z,0
2017-11-01T07:05:03.649Z,0
2017-11-01T07:06:03.653Z,0
2017-11-01T07:07:03.619Z,0
2017-11-01T07:08:03.946Z,0
2017-11-01T07:09:03.932Z,0
2017-11-01T07:10:03.932Z,0
2017-11-01T07:11:03.898Z,0
2017-11-01T07:12:03.547Z,0
2017-11-01T07:13:03.918Z,0
2017-11-01T07:14:03.885Z,0
2017-11-01T07:15:03.841Z,0
2017-11-01T07:16:03.486Z,0
2017-11-01T07:17:03.843Z,0
2017-11-01T07:18:03.463Z,0
2017-11-01T07:19:03.780Z,0
2017-11-01T07:20:03.433Z,0
2017-11-01T07:21:03.411Z,0
2017-11-01T07:22:03.756Z,0
2017-11-01T07:23:03.383Z,0
2017-11-01T07:24:03.710Z,0
2017-11-01T07:25:03.707Z,0
2017-11-01T07:26:03.701Z,0
2017-11-01T07:27:03.325Z,0
2017-11-01T07:28:03.326Z,0
2017-11-01T07:29:03.293Z,0
2017-11-01T07:30:03.618Z,0
2017-11-01T07:31:03.264Z,0
2017-11-01T07:32:03.252Z,0
2017-11-01T07:33:03.234Z,0
2017-11-01T07:34:03.242Z,0
2017-11-01T07:35:03.548Z,0
2017-11-01T07:36:03.192Z,0
2017-11-01T07:37:03.176Z,0
2017-11-01T07:38:03.173Z,0
2017-11-01T07:39:03.490Z,0
2017-11-01T07:40:03.151Z,0
2017-11-01T07:41:03.119Z,0
2017-11-01T07:42:03.102Z,0
2017-11-01T07:43:03.428Z,0
2017-11-01T07:44:03.075Z,0
2017-11-01T07:45:03.070Z,0
2017-11-01T07:46:03.045Z,0
2017-11-01T07:47:03.372Z,0
2017-11-01T07:48:03.018Z,0
2017-11-01T07:49:03.003Z,0
2017-11-01T07:50:02.999Z,0
2017-11-01T07:51:02.972Z,0
2017-11-01T07:52:02.960Z,0
2017-11-01T07:53:03.285Z,0
2017-11-01T07:54:03.268Z,0
2017-11-01T07:55:03.271Z,0
2017-11-01T07:56:03.245Z,0
2017-11-01T07:57:02.897Z,0
2017-11-01T07:58:02.891Z,0
2017-11-01T07:59:03.201Z,0
2017-11-01T08:00:02.845Z,0
2017-11-01T08:01:02.831Z,0
2017-11-01T08:02:02.813Z,0
2017-11-01T08:03:02.800Z,0
2017-11-01T08:04:03.134Z,0
2017-11-01T08:05:02.769Z,0
2017-11-01T08:06:02.754Z,0
2017-11-01T08:07:03.092Z,0
2017-11-01T08:08:03.066Z,0
2017-11-01T08:09:02.710Z,0
2017-11-01T08:10:03.036Z,0
2017-11-01T08:11:02.687Z,0
2017-11-01T08:12:02.685Z,0
2017-11-01T08:13:02.653Z,0
2017-11-01T08:14:02.639Z,0
2017-11-01T08:15:02.971Z,0
2017-11-01T08:16:02.613Z,0
2017-11-01T08:17:02.944Z,0
2017-11-01T08:18:02.582Z,0
2017-11-01T08:19:02.918Z,0
2017-11-01T08:20:02.555Z,0
2017-11-01T08:21:02.540Z,0
2017-11-01T08:22:02.546Z,0
2017-11-01T08:23:02.859Z,0
2017-11-01T08:24:02.501Z,0
2017-11-01T08:25:02.820Z,0
2017-11-01T08:26:02.472Z,0
2017-11-01T08:27:02.816Z,0
2017-11-01T08:28:02.437Z,0
2017-11-01T08:29:02.781Z,0
2017-11-01T08:30:02.427Z,0
2017-11-01T08:31:02.448Z,0
2017-11-01T08:32:02.383Z,0
2017-11-01T08:33:02.709Z,0
2017-11-01T08:34:02.356Z,0
2017-11-01T08:35:02.701Z,0
2017-11-01T08:36:02.680Z,0
2017-11-01T08:37:02.308Z,0
2017-11-01T08:38:02.296Z,0
2017-11-01T08:39:02.636Z,0
2017-11-01T08:40:02.608Z,0
2017-11-01T08:41:02.273Z,0
2017-11-01T08:42:02.576Z,0
2017-11-01T08:43:02.224Z,0
2017-11-01T08:44:02.244Z,0
2017-11-01T08:45:02.195Z,0
2017-11-01T08:46:02.178Z,0
2017-11-01T08:47:02.520Z,0
2017-11-01T08:48:02.151Z,0
2017-11-01T08:49:02.137Z,0
2017-11-01T08:50:02.141Z,0
2017-11-01T08:51:02.108Z,0
2017-11-01T08:52:02.449Z,0
2017-11-01T08:53:02.078Z,0
2017-11-01T08:54:02.268Z,0
2017-11-01T08:55:02.390Z,0
2017-11-01T08:56:02.054Z,0
2017-11-01T08:57:02.022Z,0
2017-11-01T08:58:02.020Z,0
2017-11-01T08:59:02.388Z,0
2017-11-01T09:00:02.337Z,0
2017-11-01T09:01:01.966Z,0
2017-11-01T09:02:02.326Z,0
2017-11-01T09:03:01.937Z,0
2017-11-01T09:04:01.922Z,0
2017-11-01T09:05:01.916Z,0
2017-11-01T09:06:01.895Z,0
2017-11-01T09:07:01.880Z,0
2017-11-01T09:08:01.870Z,0
2017-11-01T09:09:01.855Z,0
2017-11-01T09:10:01.839Z,0
2017-11-01T09:11:01.823Z,0
2017-11-01T09:12:02.156Z,0
2017-11-01T09:13:01.797Z,0
2017-11-01T09:14:01.789Z,0
2017-11-01T09:15:02.142Z,0
2017-11-01T09:16:01.798Z,0
2017-11-01T09:17:01.741Z,0
2017-11-01T09:18:01.747Z,0
2017-11-01T09:19:01.718Z,0
2017-11-01T09:20:01.697Z,0
2017-11-01T09:21:02.057Z,0
2017-11-01T09:22:02.022Z,0
2017-11-01T09:23:01.657Z,0
2017-11-01T09:24:01.994Z,0
2017-11-01T09:25:02.027Z,0
2017-11-01T09:26:01.967Z,0
2017-11-01T09:27:01.944Z,0
2017-11-01T09:28:01.944Z,0
2017-11-01T09:29:01.585Z,0
2017-11-01T09:30:01.561Z,0
2017-11-01T09:31:01.890Z,0
2017-11-01T09:32:01.533Z,0
2017-11-01T09:33:01.517Z,0
2017-11-01T09:34:01.512Z,0
2017-11-01T09:35:01.492Z,0
2017-11-01T09:36:01.476Z,0
2017-11-01T09:37:01.812Z,0
2017-11-01T09:38:01.447Z,0
2017-11-01T09:39:01.456Z,0
2017-11-01T09:40:01.435Z,0
2017-11-01T09:41:01.750Z,0
2017-11-01T09:42:01.738Z,0
2017-11-01T09:43:01.379Z,0
2017-11-01T09:44:01.370Z,0
2017-11-01T09:45:01.352Z,0
2017-11-01T09:46:01.347Z,0
2017-11-01T09:47:01.665Z,0
2017-11-01T09:48:01.651Z,0
2017-11-01T09:49:01.295Z,0
2017-11-01T09:50:01.302Z,0
2017-11-01T09:51:01.269Z,0
2017-11-01T09:52:01.594Z,0
2017-11-01T09:53:01.579Z,0
2017-11-01T09:54:01.574Z,0
2017-11-01T09:55:01.229Z,0
2017-11-01T09:56:01.552Z,0
2017-11-01T09:57:01.186Z,0
2017-11-01T09:58:01.174Z,0
2017-11-01T09:59:01.517Z,0
2017-11-01T10:00:01.158Z,0
2017-11-01T10:01:01.134Z,0
2017-11-01T10:02:01.463Z,0
2017-11-01T10:03:01.443Z,0
2017-11-01T10:04:01.097Z,0
2017-11-01T10:05:01.448Z,0
2017-11-01T10:06:01.064Z,0
2017-11-01T10:07:01.053Z,0
2017-11-01T10:08:01.045Z,0
2017-11-01T10:09:01.365Z,0
2017-11-01T10:10:01.009Z,0
2017-11-01T10:11:00.998Z,0
2017-11-01T10:12:01.323Z,0
2017-11-01T10:13:00.968Z,0
2017-11-01T10:14:00.955Z,0
2017-11-01T10:15:01.286Z,0
2017-11-01T10:16:00.928Z,0
2017-11-01T10:17:00.922Z,0
2017-11-01T10:18:00.926Z,0
2017-11-01T10:19:00.890Z,0
2017-11-01T10:20:01.217Z,0
2017-11-01T10:21:00.979Z,0
2017-11-01T10:22:00.851Z,0
2017-11-01T10:23:00.859Z,0
2017-11-01T10:24:00.824Z,0
2017-11-01T10:25:00.811Z,0
2017-11-01T10:26:00.797Z,0
2017-11-01T10:27:01.145Z,0
2017-11-01T10:28:01.130Z,0
2017-11-01T10:29:01.095Z,0
2017-11-01T10:30:00.758Z,0
2017-11-01T10:31:01.067Z,0
2017-11-01T10:32:00.717Z,0
2017-11-01T10:33:01.044Z,0
2017-11-01T10:34:00.689Z,0
2017-11-01T10:35:00.680Z,0
2017-11-01T10:36:01.003Z,0
2017-11-01T10:37:00.656Z,0
2017-11-01T10:38:00.980Z,0
2017-11-01T10:39:00.635Z,0
2017-11-01T10:40:00.947Z,0
2017-11-01T10:41:00.594Z,0
2017-11-01T10:42:00.925Z,0
2017-11-01T10:43:00.567Z,0
2017-11-01T10:44:00.893Z,0
2017-11-01T10:45:00.542Z,0
2017-11-01T10:46:00.527Z,0
2017-11-01T10:47:00.516Z,0
2017-11-01T10:48:00.503Z,0
2017-11-01T10:49:00.829Z,0
2017-11-01T10:50:00.475Z,0
2017-11-01T10:51:00.462Z,0
2017-11-01T10:52:00.448Z,0
2017-11-01T10:53:00.781Z,0
2017-11-01T10:54:00.423Z,0
2017-11-01T10:55:00.430Z,0
2017-11-01T10:56:00.741Z,0
2017-11-01T10:57:00.388Z,0
2017-11-01T10:58:00.368Z,0
2017-11-01T10:59:00.356Z,0
2017-11-01T11:00:00.685Z,0
2017-11-01T11:01:00.672Z,0
2017-11-01T11:02:00.319Z,0
2017-11-01T11:03:00.309Z,0
2017-11-01T11:04:00.291Z,0
2017-11-01T11:05:00.279Z,0
2017-11-01T11:06:00.265Z,0
2017-11-01T11:07:00.252Z,0
2017-11-01T11:08:00.238Z,0
2017-11-01T11:09:00.226Z,0
2017-11-01T11:10:00.214Z,0
2017-11-01T11:11:00.218Z,0
2017-11-01T11:12:00.187Z,0
2017-11-01T11:13:00.526Z,0
2017-11-01T11:14:00.159Z,0
2017-11-01T11:15:00.502Z,0
2017-11-01T11:16:00.133Z,0
2017-11-01T11:17:00.467Z,0
2017-11-01T11:18:00.454Z,0
2017-11-01T11:19:00.093Z,0
2017-11-01T11:20:00.101Z,0
2017-11-01T11:21:00.080Z,0
2017-11-01T11:22:00.408Z,0
2017-11-01T11:23:00.406Z,0
2017-11-01T11:24:00.369Z,0
2017-11-01T11:25:00.389Z,0
2017-11-01T11:26:00.002Z,0
2017-11-01T11:27:00.006Z,0
2017-11-01T11:28:00.333Z,0
2017-11-01T11:29:00.324Z,0
2017-11-01T11:29:59.968Z,0
2017-11-01T11:31:00.279Z,0
2017-11-01T11:31:59.925Z,0
2017-11-01T11:32:59.914Z,0
2017-11-01T11:33:59.898Z,0
2017-11-01T11:34:59.887Z,0
2017-11-01T11:35:59.874Z,0
2017-11-01T11:36:59.862Z,0
2017-11-01T11:38:00.187Z,0
2017-11-01T11:39:00.173Z,0
2017-11-01T11:39:59.820Z,0
2017-11-01T11:40:59.807Z,0
2017-11-01T11:41:59.794Z,0
2017-11-01T11:43:00.123Z,0
2017-11-01T11:43:59.769Z,0
2017-11-01T11:45:00.106Z,0
2017-11-01T11:45:59.746Z,0
2017-11-01T11:46:59.732Z,0
2017-11-01T11:48:00.059Z,0
2017-11-01T11:49:00.046Z,0
2017-11-01T11:49:59.692Z,0
2017-11-01T11:50:59.685Z,0
2017-11-01T11:51:59.667Z,0
2017-11-01T11:52:59.654Z,0
2017-11-01T11:54:00.001Z,0
2017-11-01T11:54:59.628Z,0
2017-11-01T11:55:59.981Z,0
2017-11-01T11:56:59.612Z,0
2017-11-01T11:57:59.590Z,0
2017-11-01T11:58:59.579Z,0
2017-11-01T11:59:59.910Z,0
2017-11-01T12:00:59.894Z,0
2017-11-01T12:01:59.540Z,0
2017-11-01T12:02:59.526Z,0
2017-11-01T12:03:59.854Z,0
2017-11-01T12:04:59.501Z,0
2017-11-01T12:05:59.493Z,0
2017-11-01T12:06:59.840Z,0
2017-11-01T12:07:59.461Z,0
2017-11-01T12:08:59.450Z,0
2017-11-01T12:09:59.437Z,0
2017-11-01T12:10:59.765Z,0
2017-11-01T12:11:59.413Z,0
2017-11-01T12:12:59.405Z,0
2017-11-01T12:13:59.726Z,0
2017-11-01T12:14:59.375Z,0
2017-11-01T12:15:59.361Z,0
2017-11-01T12:16:59.349Z,0
2017-11-01T12:17:59.677Z,0
2017-11-01T12:18:59.324Z,0
2017-11-01T12:19:59.654Z,0
2017-11-01T12:20:59.642Z,0
2017-11-01T12:21:59.290Z,0
2017-11-01T12:22:59.276Z,0
2017-11-01T12:23:59.609Z,0
2017-11-01T12:24:59.253Z,0
2017-11-01T12:25:59.239Z,0
2017-11-01T12:26:59.230Z,0
2017-11-01T12:27:59.215Z,0
2017-11-01T12:28:59.542Z,0
2017-11-01T12:29:59.203Z,0
2017-11-01T12:30:59.522Z,0
2017-11-01T12:31:59.182Z,0
2017-11-01T12:32:59.495Z,0
2017-11-01T12:33:59.144Z,0
2017-11-01T12:34:59.134Z,0
2017-11-01T12:35:59.120Z,0
2017-11-01T12:36:59.122Z,0
2017-11-01T12:37:59.466Z,0
2017-11-01T12:38:59.083Z,0
2017-11-01T12:39:59.411Z,0
2017-11-01T12:40:59.409Z,0
2017-11-01T12:41:59.390Z,0
2017-11-01T12:42:59.035Z,0
2017-11-01T12:43:59.371Z,0
2017-11-01T12:44:59.013Z,0
2017-11-01T12:45:58.999Z,0
2017-11-01T12:46:58.988Z,0
2017-11-01T12:47:58.976Z,0
2017-11-01T12:48:58.965Z,0
2017-11-01T12:49:59.294Z,0
2017-11-01T12:50:58.940Z,0
2017-11-01T12:51:58.930Z,0
2017-11-01T12:52:59.261Z,0
2017-11-01T12:53:59.250Z,0
2017-11-01T12:54:59.243Z,0
2017-11-01T12:55:59.221Z,0
2017-11-01T12:56:59.219Z,0
2017-11-01T12:57:59.204Z,0
2017-11-01T12:58:59.187Z,0
2017-11-01T12:59:58.832Z,0
2017-11-01T13:00:58.842Z,0
2017-11-01T13:01:59.157Z,0
2017-11-01T13:02:58.797Z,0
2017-11-01T13:03:58.785Z,0
2017-11-01T13:04:58.773Z,0
2017-11-01T13:05:59.106Z,0
2017-11-01T13:06:58.750Z,0
2017-11-01T13:07:58.738Z,0
2017-11-01T13:08:58.724Z,0
2017-11-01T13:09:58.714Z,0
2017-11-01T13:10:59.045Z,0
2017-11-01T13:11:59.031Z,0
2017-11-01T13:12:59.022Z,0
2017-11-01T13:13:58.666Z,0
2017-11-01T13:14:58.993Z,0
2017-11-01T13:15:58.640Z,0
2017-11-01T13:16:58.970Z,0
2017-11-01T13:17:58.961Z,0
2017-11-01T13:18:58.607Z,0
2017-11-01T13:19:58.937Z,0
2017-11-01T13:20:58.582Z,0
2017-11-01T13:21:58.912Z,0
2017-11-01T13:22:58.558Z,0
2017-11-01T13:23:58.566Z,0
2017-11-01T13:24:58.882Z,0
2017-11-01T13:25:58.543Z,0
2017-11-01T13:26:58.514Z,0
2017-11-01T13:27:58.498Z,0
2017-11-01T13:28:58.513Z,0
2017-11-01T13:29:58.472Z,0
2017-11-01T13:30:58.463Z,0
2017-11-01T13:31:58.457Z,0
2017-11-01T13:32:58.438Z,0
2017-11-01T13:33:58.425Z,0
2017-11-01T13:34:58.415Z,0
2017-11-01T13:35:58.404Z,0
2017-11-01T13:36:58.745Z,0
2017-11-01T13:37:58.726Z,0
2017-11-01T13:38:58.368Z,0
2017-11-01T13:39:58.700Z,0
2017-11-01T13:40:58.703Z,0
2017-11-01T13:41:58.332Z,0
2017-11-01T13:42:58.330Z,0
2017-11-01T13:43:58.308Z,0
2017-11-01T13:44:58.297Z,0
2017-11-01T13:45:58.283Z,0
2017-11-01T13:46:58.294Z,0
2017-11-01T13:47:58.602Z,0
2017-11-01T13:48:58.249Z,0
2017-11-01T13:49:58.277Z,0
2017-11-01T13:50:58.226Z,0
2017-11-01T13:51:58.211Z,0
2017-11-01T13:52:58.201Z,0
2017-11-01T13:53:58.549Z,0
2017-11-01T13:54:58.177Z,0
2017-11-01T13:55:58.367Z,0
2017-11-01T13:56:58.153Z,0
2017-11-01T13:57:58.156Z,0
2017-11-01T13:58:58.471Z,0
2017-11-01T13:59:58.464Z,0
2017-11-01T14:00:58.490Z,0
2017-11-01T14:01:58.436Z,0
2017-11-01T14:02:58.422Z,0
2017-11-01T14:03:58.091Z,0